createdAt,value
2023-05-07T00:01:37.971Z,99896.47
2023-05-07T00:04:04.860Z,99903.44
2023-05-07T00:06:31.593Z,99902.34
2023-05-07T00:08:58.759Z,99909.50
2023-05-07T00:14:00.793Z,99910.88
2023-05-07T00:16:27.426Z,99912.16
2023-05-07T00:18:54.938Z,99912.31
2023-05-07T00:21:22.554Z,99917.28
2023-05-07T00:23:49.356Z,99914.41
2023-05-07T00:26:37.804Z,99915.22
2023-05-07T00:29:04.381Z,99921.06
2023-05-07T00:31:30.987Z,99914.19
2023-05-07T00:33:57.592Z,99916.03
2023-05-07T00:37:27.065Z,99913.28
2023-05-07T00:42:50.065Z,99908.72
2023-05-07T00:45:18.051Z,99915.72
2023-05-07T00:47:45.070Z,99908.59
2023-05-07T00:50:13.783Z,99915.41
2023-05-07T00:52:40.928Z,99915.38
2023-05-07T00:58:03.252Z,99920.03
2023-05-07T01:00:29.895Z,99920.28
2023-05-07T01:02:56.686Z,99924.50
2023-05-07T01:05:25.427Z,99918.94
2023-05-07T01:14:09.928Z,99918.19
2023-05-07T01:16:37.695Z,99927.00
2023-05-07T01:19:04.665Z,99921.16
2023-05-07T01:21:35.455Z,99923.91
2023-05-07T01:24:02.131Z,99919.22
2023-05-07T01:29:03.925Z,99921.44
2023-05-07T01:31:30.915Z,99915.13
2023-05-07T01:34:00.507Z,99914.63
2023-05-07T01:42:45.047Z,99926.31
2023-05-07T01:45:12.399Z,99921.47
2023-05-07T01:47:40.472Z,99925.53
2023-05-07T01:50:09.726Z,99928.94
2023-05-07T01:52:39.171Z,99932.19
2023-05-07T01:57:41.152Z,99928.94
2023-05-07T02:00:09.765Z,99924.41
2023-05-07T02:02:37.182Z,99913.97
2023-05-07T02:05:51.101Z,99910.72
2023-05-07T02:11:29.350Z,99903.75
2023-05-07T02:13:56.126Z,99899.84
2023-05-07T02:16:24.211Z,99898.66
2023-05-07T02:18:50.899Z,99897.84
2023-05-07T02:21:17.586Z,99900.28
2023-05-07T02:23:44.224Z,99903.50
2023-05-07T02:26:26.953Z,99894.16
2023-05-07T02:28:54.737Z,99888.75
2023-05-07T02:31:21.321Z,99891.31
2023-05-07T02:33:47.910Z,99901.37
2023-05-07T02:36:52.569Z,99891.03
2023-05-07T02:41:54.396Z,99884.41
2023-05-07T02:44:20.959Z,99890.81
2023-05-07T02:46:47.490Z,99886.97
2023-05-07T02:49:14.094Z,99893.56
2023-05-07T02:51:40.791Z,99888.84
2023-05-07T02:56:42.586Z,99886.81
2023-05-07T02:59:09.110Z,99895.34
2023-05-07T03:01:35.794Z,99885.91
2023-05-07T03:04:02.708Z,99887.91
2023-05-07T03:06:29.350Z,99887.78
2023-05-07T03:09:20.730Z,99900.41
2023-05-07T03:12:37.770Z,99900.91
2023-05-07T03:15:26.222Z,99900.25
2023-05-07T03:17:52.826Z,99906.25
2023-05-07T03:20:19.546Z,99900.91
2023-05-07T03:22:46.271Z,99895.22
2023-05-07T03:27:48.146Z,99894.72
2023-05-07T03:30:14.924Z,99897.50
2023-05-07T03:32:41.887Z,99908.38
2023-05-07T03:35:08.719Z,99904.28
2023-05-07T03:37:35.333Z,99894.44
2023-05-07T03:42:37.384Z,99894.87
2023-05-07T03:45:04.344Z,99898.75
2023-05-07T03:47:31.389Z,99897.53
2023-05-07T03:53:49.843Z,99909.25
2023-05-07T03:56:17.842Z,99915.91
2023-05-07T03:58:46.565Z,99914.28
2023-05-07T04:01:13.173Z,99919.66
2023-05-07T04:03:39.776Z,99925.22
2023-05-07T04:06:06.931Z,99928.12
2023-05-07T04:16:41.998Z,99927.78
2023-05-07T04:26:04.948Z,99927.41
2023-05-07T04:28:31.563Z,99927.25
2023-05-07T04:30:58.636Z,99928.09
2023-05-07T04:33:25.349Z,99934.72
2023-05-07T04:35:51.925Z,99933.78
2023-05-07T04:38:42.705Z,99939.63
2023-05-07T04:41:10.524Z,99944.38
2023-05-07T04:43:37.116Z,99940.63
2023-05-07T04:46:03.719Z,99946.47
2023-05-07T05:25:09.047Z,99949.00
2023-05-07T05:27:36.816Z,99949.78
2023-05-07T05:30:04.518Z,99947.19
2023-05-07T05:32:31.179Z,99943.25
2023-05-07T05:34:57.776Z,99946.56
2023-05-07T05:37:24.465Z,99955.81
2023-05-07T06:06:35.943Z,99935.22
2023-05-07T06:09:02.538Z,99939.03
2023-05-07T06:11:29.090Z,99941.94
2023-05-07T06:13:55.624Z,99947.97
2023-05-07T06:16:22.235Z,99954.78
2023-05-07T06:18:48.806Z,99957.91
2023-05-07T06:21:16.292Z,99956.50
2023-05-07T06:24:01.734Z,99955.50
2023-05-07T06:26:28.260Z,99953.41
2023-05-07T06:28:54.798Z,99951.22
2023-05-07T06:31:21.659Z,99959.12
2023-05-07T06:34:37.144Z,99952.28
2023-05-07T06:37:32.202Z,99956.91
2023-05-07T06:40:07.599Z,99949.53
2023-05-07T06:42:34.195Z,99953.84
2023-05-07T06:45:00.809Z,99953.31
2023-05-07T06:47:30.382Z,99963.47
2023-05-07T06:49:57.335Z,99963.41
2023-05-07T06:52:46.441Z,99965.13
2023-05-07T06:55:14.040Z,99958.56
2023-05-07T06:57:40.987Z,99970.78
2023-05-07T07:00:21.151Z,99966.69
2023-05-07T07:02:47.750Z,99957.44
2023-05-07T07:05:14.634Z,99965.78
2023-05-07T07:07:41.732Z,99970.34
2023-05-07T07:10:09.051Z,99968.31
2023-05-07T07:12:49.595Z,99966.38
2023-05-07T09:05:41.397Z,99996.44
2023-05-07T09:08:09.073Z,100000.53
2023-05-07T09:10:35.701Z,99994.37
2023-05-07T09:13:04.016Z,100002.97
2023-05-07T09:15:33.506Z,99997.31
2023-05-07T10:08:09.799Z,100007.59
2023-05-07T10:10:45.087Z,100007.66
2023-05-07T10:33:38.734Z,100012.75
2023-05-07T10:36:17.657Z,100016.44
2023-05-07T10:38:44.770Z,100011.62
2023-05-07T10:41:12.338Z,100010.94
2023-05-07T10:44:02.436Z,100013.00
2023-05-07T10:46:29.316Z,100008.91
2023-05-07T10:49:01.804Z,100013.56
2023-05-07T10:51:29.305Z,100009.25
2023-05-07T10:54:11.322Z,99998.06
2023-05-07T10:56:47.083Z,99996.88
2023-05-07T10:59:28.138Z,100007.19
2023-05-07T11:02:00.256Z,99998.63
2023-05-07T11:04:32.462Z,100004.06
2023-05-07T11:07:11.223Z,99998.78
2023-05-07T11:09:56.979Z,99998.69
2023-05-07T11:12:39.163Z,99994.66
2023-05-07T11:15:10.926Z,99983.50
2023-05-07T11:17:58.987Z,99991.72
2023-05-07T11:20:58.121Z,99986.44
2023-05-07T11:23:38.311Z,99984.84
2023-05-07T11:26:09.565Z,99979.22
2023-05-07T11:28:42.986Z,99981.75
2023-05-07T11:31:11.063Z,99984.06
2023-05-07T11:33:39.169Z,99986.28
2023-05-07T11:36:08.792Z,99993.72
2023-05-07T11:38:39.705Z,99985.87
2023-05-07T11:41:06.505Z,99991.25
2023-05-07T11:43:34.085Z,99987.06
2023-05-07T11:46:10.190Z,99982.81
2023-05-07T11:48:42.536Z,99972.72
2023-05-07T11:51:16.184Z,99979.69
2023-05-07T11:53:44.441Z,99987.50
2023-05-07T11:56:16.318Z,99980.41
2023-05-07T11:59:13.781Z,99974.06
2023-05-07T12:25:00.622Z,99958.13
2023-05-07T12:27:27.562Z,99953.47
2023-05-07T12:29:54.202Z,99958.69
2023-05-07T12:42:08.693Z,99943.91
2023-05-07T12:44:36.149Z,99941.66
2023-05-07T12:47:03.833Z,99936.47
2023-05-07T12:49:30.797Z,99945.22
2023-05-07T12:54:34.344Z,99947.47
2023-05-07T12:57:10.842Z,99947.41
2023-05-07T12:59:39.305Z,99939.81
2023-05-07T13:02:06.431Z,99938.44
2023-05-07T13:04:33.697Z,99942.25
2023-05-07T13:07:01.264Z,99932.41
2023-05-07T13:09:29.642Z,99937.44
2023-05-07T13:11:56.408Z,99939.69
2023-05-07T13:14:23.075Z,99941.78
2023-05-07T13:16:50.343Z,99930.59
2023-05-07T13:19:17.187Z,99930.34
2023-05-07T13:21:43.750Z,99929.53
2023-05-07T13:24:10.435Z,99926.06
2023-05-07T13:26:37.198Z,99926.06
2023-05-07T13:29:03.810Z,99924.34
2023-05-07T13:31:31.073Z,99923.72
2023-05-07T13:33:57.735Z,99926.91
2023-05-07T13:41:34.813Z,99922.84
2023-05-07T13:44:01.443Z,99917.41
2023-05-07T13:46:28.342Z,99911.38
2023-05-07T13:49:24.060Z,99915.28
2023-05-07T13:54:40.437Z,99911.72
2023-05-07T13:57:07.084Z,99916.78
2023-05-07T13:59:36.602Z,99902.34
2023-05-07T14:02:03.206Z,99903.28
2023-05-07T14:04:32.149Z,99901.09
2023-05-07T14:06:58.702Z,99903.19
2023-05-07T14:09:25.276Z,99893.72
2023-05-07T14:11:52.437Z,99899.75
2023-05-07T14:14:19.732Z,99896.78
2023-05-07T14:16:48.415Z,99900.34
2023-05-07T14:19:16.063Z,99904.94
2023-05-07T14:45:17.216Z,99907.41
2023-05-07T14:47:43.922Z,99911.03
2023-05-07T14:50:11.782Z,99909.03
2023-05-07T14:52:38.361Z,99916.41
2023-05-07T14:55:05.746Z,99920.53
2023-05-07T14:57:35.795Z,99915.50
2023-05-07T15:00:14.346Z,99919.72
2023-05-07T15:02:41.062Z,99925.91
2023-05-07T15:05:15.410Z,99920.31
2023-05-07T15:07:47.388Z,99918.22
2023-05-07T15:15:24.827Z,99919.28
2023-05-07T15:17:51.501Z,99929.31
2023-05-07T15:20:18.729Z,99922.94
2023-05-07T15:28:02.149Z,99934.88
2023-05-07T15:30:29.744Z,99923.72
2023-05-07T15:32:56.736Z,99918.78
2023-05-07T15:35:23.550Z,99923.59
2023-05-07T15:37:50.942Z,99917.00
2023-05-07T15:40:38.757Z,99929.31
2023-05-07T15:43:05.290Z,99927.84
2023-05-07T15:45:32.027Z,99927.75
2023-05-07T15:47:59.227Z,99932.03
2023-05-07T15:50:26.255Z,99919.84
2023-05-07T15:56:56.465Z,99924.37
2023-05-07T15:59:27.526Z,99929.03
2023-05-07T16:02:17.344Z,99932.97
2023-05-07T16:04:45.009Z,99928.25
2023-05-07T16:10:00.521Z,99933.91
2023-05-07T16:12:29.974Z,99931.91
2023-05-07T16:14:56.595Z,99933.13
2023-05-07T16:17:32.694Z,99936.88
2023-05-07T16:20:19.783Z,99930.09
2023-05-07T16:22:48.138Z,99931.87
2023-05-07T16:25:15.074Z,99928.50
2023-05-07T16:32:58.440Z,99927.28
2023-05-07T16:35:25.128Z,99923.69
2023-05-07T16:37:54.882Z,99922.06
2023-05-07T16:40:25.242Z,99922.06
2023-05-07T16:43:00.483Z,99915.41
2023-05-07T16:45:27.086Z,99924.44
2023-05-07T16:47:54.679Z,99910.63
2023-05-07T16:50:21.279Z,99917.75
2023-05-07T16:52:53.423Z,99911.81
2023-05-07T16:55:20.282Z,99916.94
2023-05-07T16:57:46.899Z,99919.00
2023-05-07T17:00:14.376Z,99914.50
2023-05-07T17:02:41.124Z,99919.97
2023-05-07T17:05:10.086Z,99920.19
2023-05-07T17:07:38.042Z,99922.78
2023-05-07T17:10:05.469Z,99926.38
2023-05-07T17:12:32.073Z,99921.22
2023-05-07T17:15:12.393Z,99927.19
2023-05-07T17:17:40.951Z,99927.19
2023-05-07T17:20:09.333Z,99934.56
2023-05-07T17:22:36.024Z,99926.28
2023-05-07T17:25:04.248Z,99931.13
2023-05-07T17:27:37.034Z,99928.12
2023-05-07T17:30:03.668Z,99940.78
2023-05-07T17:32:30.452Z,99937.84
2023-05-07T17:34:59.070Z,99942.75
2023-05-07T17:37:26.155Z,99923.84
2023-05-07T17:42:28.221Z,99940.97
2023-05-07T17:44:55.899Z,99940.03
2023-05-07T17:47:23.965Z,99937.47
2023-05-07T17:49:50.557Z,99941.06
2023-05-07T17:52:17.165Z,99945.28
2023-05-07T18:02:51.910Z,99977.22
2023-05-07T18:05:18.663Z,99980.94
2023-05-07T18:07:45.588Z,99981.22
2023-05-07T18:10:12.345Z,99991.75
2023-05-07T18:12:40.383Z,99987.25
2023-05-07T18:15:07.544Z,100003.50
2023-05-07T18:17:34.158Z,99997.16
2023-05-07T18:20:00.825Z,100006.22
2023-05-07T18:22:27.765Z,100003.59
2023-05-07T18:24:55.974Z,100014.50
2023-05-07T18:27:22.605Z,100016.59
2023-05-07T18:29:49.205Z,100019.25
2023-05-07T18:32:16.546Z,100018.66
2023-05-07T18:34:43.354Z,100021.94
2023-05-07T18:37:09.946Z,100020.09
2023-05-07T18:39:36.592Z,100014.44
2023-05-07T18:42:05.262Z,100022.66
2023-05-07T18:44:32.261Z,100026.03
2023-05-07T18:47:06.059Z,100027.44
2023-05-07T18:49:36.152Z,100026.84
2023-05-07T18:52:05.490Z,100038.53
2023-05-07T18:54:32.162Z,100038.16
2023-05-07T18:56:58.898Z,100044.53
2023-05-07T18:59:25.521Z,100051.13
2023-05-07T19:01:52.144Z,100046.63
2023-05-07T19:04:18.933Z,100061.97
2023-05-07T19:06:46.028Z,100069.50
2023-05-07T19:09:12.738Z,100084.44
2023-05-07T19:11:39.306Z,100100.78
2023-05-07T19:14:06.570Z,100104.38
2023-05-07T19:16:33.376Z,100109.72
2023-05-07T19:19:00.195Z,100115.25
2023-05-07T19:21:28.578Z,100127.84
2023-05-07T19:23:57.403Z,100142.03
2023-05-07T19:26:24.292Z,100149.25
2023-05-07T19:29:06.707Z,100160.44
2023-05-07T19:31:38.517Z,100166.28
2023-05-07T19:34:05.218Z,100167.28
2023-05-07T19:36:34.338Z,100171.91
2023-05-07T19:39:01.367Z,100171.66
2023-05-07T19:41:28.678Z,100182.81
2023-05-07T19:43:55.413Z,100182.94
2023-05-07T19:46:22.146Z,100189.28
2023-05-07T19:48:49.468Z,100189.13
2023-05-07T19:51:16.128Z,100199.16
2023-05-07T19:53:42.743Z,100196.59
2023-05-07T19:56:10.717Z,100192.72
2023-05-07T19:58:38.673Z,100196.13
2023-05-07T20:01:06.380Z,100206.53
2023-05-07T20:03:34.167Z,100209.94
2023-05-07T20:06:01.351Z,100222.75
2023-05-07T20:08:28.580Z,100228.28
2023-05-07T20:10:57.703Z,100240.22
2023-05-07T20:13:24.401Z,100235.09
2023-05-07T20:15:51.039Z,100238.69
2023-05-07T20:18:17.696Z,100228.09
2023-05-07T20:20:45.413Z,100250.94
2023-05-07T20:23:12.106Z,100252.44
2023-05-07T20:25:41.408Z,100256.41
2023-05-07T20:28:08.019Z,100256.72
2023-05-07T20:30:34.804Z,100254.09
2023-05-07T20:33:01.475Z,100249.88
2023-05-07T20:35:28.138Z,100255.28
2023-05-07T20:37:54.660Z,100256.91
2023-05-07T20:40:21.388Z,100256.03
2023-05-07T20:42:47.898Z,100252.22
2023-05-07T20:45:14.555Z,100249.19
2023-05-07T20:47:41.373Z,100258.56
2023-05-07T20:50:08.229Z,100258.84
2023-05-07T20:52:35.747Z,100258.13
2023-05-07T20:55:02.396Z,100259.91
2023-05-07T20:57:28.937Z,100269.34
2023-05-07T20:59:55.510Z,100273.59
2023-05-07T21:02:22.146Z,100280.56
2023-05-07T21:04:51.430Z,100274.94
2023-05-07T21:07:18.456Z,100283.41
2023-05-07T21:09:45.052Z,100290.84
2023-05-07T21:12:11.664Z,100282.31
2023-05-07T21:14:39.402Z,100287.22
2023-05-07T21:17:07.207Z,100292.97
2023-05-07T21:19:34.076Z,100285.97
2023-05-07T21:22:01.044Z,100287.78
2023-05-07T21:24:27.682Z,100291.31
2023-05-07T21:26:56.166Z,100289.06
2023-05-07T21:33:06.922Z,100291.41
2023-05-07T21:40:59.088Z,100289.50
2023-05-07T21:51:52.268Z,100293.12
2023-05-07T21:54:18.887Z,100299.25
2023-05-07T21:56:49.991Z,100298.84
2023-05-07T21:59:16.824Z,100296.50
2023-05-07T22:01:43.405Z,100300.56
2023-05-07T22:06:45.412Z,100312.06
2023-05-07T22:09:12.389Z,100321.78
2023-05-07T22:11:39.064Z,100313.84
2023-05-07T22:14:27.626Z,100319.78
2023-05-07T22:19:54.448Z,100313.22
2023-05-07T22:22:51.216Z,100311.28
2023-05-07T22:25:19.263Z,100307.78
2023-05-07T22:27:45.986Z,100314.09
2023-05-07T22:30:13.122Z,100310.00
2023-05-07T22:32:42.177Z,100318.50
2023-05-07T22:35:24.929Z,100315.97
2023-05-07T22:37:51.466Z,100320.78
2023-05-07T22:42:59.034Z,100323.09
2023-05-07T22:49:12.350Z,100327.78
2023-05-07T23:21:37.567Z,100332.22
2023-05-07T23:26:39.429Z,100346.88
2023-05-07T23:29:06.182Z,100346.06
2023-05-07T23:31:32.844Z,100342.75
2023-05-07T23:34:23.797Z,100343.56
2023-05-07T23:36:51.337Z,100343.84
2023-05-07T23:39:18.936Z,100344.03
2023-05-07T23:41:46.075Z,100336.53
2023-05-07T23:45:13.997Z,100326.00
2023-05-07T23:48:00.647Z,100337.12
2023-05-07T23:53:02.545Z,100329.59
2023-05-07T23:55:29.148Z,100335.06
2023-05-07T23:57:55.793Z,100330.22
